sensor_id;sensor_type;location;lat;lon;timestamp;P1;durP1;ratioP1;P2;durP2;ratioP2
21539;SDS011;10931;52.164;5.518;2023-04-16T00:00:15;1.98;;;0.57;;
21539;SDS011;10931;52.164;5.518;2023-04-16T00:02:41;2.17;;;0.90;;
21539;SDS011;10931;52.164;5.518;2023-04-16T00:05:07;1.45;;;0.55;;
21539;SDS011;10931;52.164;5.518;2023-04-16T00:07:33;1.15;;;0.50;;
21539;SDS011;10931;52.164;5.518;2023-04-16T00:09:58;1.63;;;0.73;;
21539;SDS011;10931;52.164;5.518;2023-04-16T00:15:08;2.58;;;0.65;;
21539;SDS011;10931;52.164;5.518;2023-04-16T00:17:34;1.73;;;0.60;;
21539;SDS011;10931;52.164;5.518;2023-04-16T00:20:00;1.85;;;0.68;;
21539;SDS011;10931;52.164;5.518;2023-04-16T00:22:26;0.88;;;0.75;;
21539;SDS011;10931;52.164;5.518;2023-04-16T00:24:51;1.48;;;0.60;;
21539;SDS011;10931;52.164;5.518;2023-04-16T00:27:17;2.22;;;0.80;;
21539;SDS011;10931;52.164;5.518;2023-04-16T00:29:43;2.75;;;0.70;;
21539;SDS011;10931;52.164;5.518;2023-04-16T00:32:10;3.08;;;1.00;;
21539;SDS011;10931;52.164;5.518;2023-04-16T00:34:37;2.45;;;1.00;;
21539;SDS011;10931;52.164;5.518;2023-04-16T00:37:03;4.93;;;0.93;;
21539;SDS011;10931;52.164;5.518;2023-04-16T00:39:29;3.20;;;1.02;;
21539;SDS011;10931;52.164;5.518;2023-04-16T00:41:54;2.75;;;0.60;;
21539;SDS011;10931;52.164;5.518;2023-04-16T00:44:21;4.60;;;1.02;;
21539;SDS011;10931;52.164;5.518;2023-04-16T00:46:47;1.08;;;0.68;;
21539;SDS011;10931;52.164;5.518;2023-04-16T00:49:22;4.22;;;1.17;;
21539;SDS011;10931;52.164;5.518;2023-04-16T00:51:48;4.13;;;1.00;;
21539;SDS011;10931;52.164;5.518;2023-04-16T00:54:14;3.35;;;1.10;;
21539;SDS011;10931;52.164;5.518;2023-04-16T00:56:40;2.83;;;1.02;;
21539;SDS011;10931;52.164;5.518;2023-04-16T00:59:06;2.47;;;0.93;;
21539;SDS011;10931;52.164;5.518;2023-04-16T01:01:33;3.13;;;0.77;;
21539;SDS011;10931;52.164;5.518;2023-04-16T01:03:59;2.33;;;0.80;;
21539;SDS011;10931;52.164;5.518;2023-04-16T01:06:27;1.77;;;0.90;;
21539;SDS011;10931;52.164;5.518;2023-04-16T01:09:02;4.70;;;1.30;;
21539;SDS011;10931;52.164;5.518;2023-04-16T01:11:27;2.92;;;1.02;;
21539;SDS011;10931;52.164;5.518;2023-04-16T01:13:53;2.65;;;1.20;;
21539;SDS011;10931;52.164;5.518;2023-04-16T01:16:21;2.33;;;1.30;;
21539;SDS011;10931;52.164;5.518;2023-04-16T01:18:50;2.90;;;1.25;;
21539;SDS011;10931;52.164;5.518;2023-04-16T01:21:16;2.60;;;0.90;;
21539;SDS011;10931;52.164;5.518;2023-04-16T01:23:42;2.05;;;0.90;;
21539;SDS011;10931;52.164;5.518;2023-04-16T01:26:07;3.83;;;1.33;;
21539;SDS011;10931;52.164;5.518;2023-04-16T01:28:37;3.05;;;0.90;;
21539;SDS011;10931;52.164;5.518;2023-04-16T01:31:03;3.10;;;1.15;;
21539;SDS011;10931;52.164;5.518;2023-04-16T01:33:30;2.53;;;1.10;;
21539;SDS011;10931;52.164;5.518;2023-04-16T01:35:55;2.00;;;1.08;;
21539;SDS011;10931;52.164;5.518;2023-04-16T01:38:21;4.25;;;1.50;;
21539;SDS011;10931;52.164;5.518;2023-04-16T01:40:47;2.70;;;1.42;;
21539;SDS011;10931;52.164;5.518;2023-04-16T01:45:58;2.78;;;1.30;;
21539;SDS011;10931;52.164;5.518;2023-04-16T01:48:44;2.80;;;1.30;;
21539;SDS011;10931;52.164;5.518;2023-04-16T01:51:10;4.82;;;1.27;;
21539;SDS011;10931;52.164;5.518;2023-04-16T01:53:39;3.63;;;1.63;;
21539;SDS011;10931;52.164;5.518;2023-04-16T01:56:04;3.88;;;1.30;;
21539;SDS011;10931;52.164;5.518;2023-04-16T01:58:31;5.45;;;1.40;;
21539;SDS011;10931;52.164;5.518;2023-04-16T02:00:57;4.30;;;1.50;;
21539;SDS011;10931;52.164;5.518;2023-04-16T02:03:26;3.92;;;1.20;;
21539;SDS011;10931;52.164;5.518;2023-04-16T02:05:51;2.83;;;1.33;;
21539;SDS011;10931;52.164;5.518;2023-04-16T02:08:18;5.25;;;1.10;;
21539;SDS011;10931;52.164;5.518;2023-04-16T02:10:45;4.15;;;1.50;;
21539;SDS011;10931;52.164;5.518;2023-04-16T02:13:11;3.05;;;1.40;;
21539;SDS011;10931;52.164;5.518;2023-04-16T02:18:09;5.20;;;1.33;;
21539;SDS011;10931;52.164;5.518;2023-04-16T02:20:38;3.85;;;1.10;;
21539;SDS011;10931;52.164;5.518;2023-04-16T02:23:05;2.72;;;1.20;;
21539;SDS011;10931;52.164;5.518;2023-04-16T02:25:30;3.60;;;0.85;;
21539;SDS011;10931;52.164;5.518;2023-04-16T02:27:56;5.68;;;1.38;;
21539;SDS011;10931;52.164;5.518;2023-04-16T02:30:27;4.35;;;1.48;;
21539;SDS011;10931;52.164;5.518;2023-04-16T02:32:52;3.28;;;1.10;;
21539;SDS011;10931;52.164;5.518;2023-04-16T02:35:18;1.92;;;0.93;;
21539;SDS011;10931;52.164;5.518;2023-04-16T02:37:43;2.30;;;1.02;;
21539;SDS011;10931;52.164;5.518;2023-04-16T02:40:10;2.13;;;1.20;;
21539;SDS011;10931;52.164;5.518;2023-04-16T02:42:36;5.18;;;1.50;;
21539;SDS011;10931;52.164;5.518;2023-04-16T02:45:01;3.75;;;1.30;;
21539;SDS011;10931;52.164;5.518;2023-04-16T02:47:27;3.25;;;1.42;;
21539;SDS011;10931;52.164;5.518;2023-04-16T02:49:53;5.18;;;2.08;;
21539;SDS011;10931;52.164;5.518;2023-04-16T02:52:18;3.25;;;1.40;;
21539;SDS011;10931;52.164;5.518;2023-04-16T02:54:44;5.10;;;1.48;;
21539;SDS011;10931;52.164;5.518;2023-04-16T02:57:09;4.75;;;1.63;;
21539;SDS011;10931;52.164;5.518;2023-04-16T02:59:35;6.63;;;2.08;;
21539;SDS011;10931;52.164;5.518;2023-04-16T03:02:01;4.32;;;1.75;;
21539;SDS011;10931;52.164;5.518;2023-04-16T03:04:26;4.07;;;1.40;;
21539;SDS011;10931;52.164;5.518;2023-04-16T03:06:52;3.47;;;1.33;;
21539;SDS011;10931;52.164;5.518;2023-04-16T03:09:17;3.78;;;1.40;;
21539;SDS011;10931;52.164;5.518;2023-04-16T03:11:43;4.13;;;1.80;;
21539;SDS011;10931;52.164;5.518;2023-04-16T03:14:09;5.90;;;2.33;;
21539;SDS011;10931;52.164;5.518;2023-04-16T03:16:34;4.18;;;1.63;;
21539;SDS011;10931;52.164;5.518;2023-04-16T03:19:00;3.70;;;1.73;;
21539;SDS011;10931;52.164;5.518;2023-04-16T03:21:26;3.20;;;1.58;;
21539;SDS011;10931;52.164;5.518;2023-04-16T03:23:51;4.28;;;1.30;;
21539;SDS011;10931;52.164;5.518;2023-04-16T03:26:17;4.15;;;1.63;;
21539;SDS011;10931;52.164;5.518;2023-04-16T03:28:43;4.22;;;1.75;;
21539;SDS011;10931;52.164;5.518;2023-04-16T03:31:09;4.28;;;1.55;;
21539;SDS011;10931;52.164;5.518;2023-04-16T03:33:34;5.95;;;1.63;;
21539;SDS011;10931;52.164;5.518;2023-04-16T03:36:01;3.67;;;1.70;;
21539;SDS011;10931;52.164;5.518;2023-04-16T03:38:27;4.43;;;1.88;;
21539;SDS011;10931;52.164;5.518;2023-04-16T03:40:53;5.35;;;1.88;;
21539;SDS011;10931;52.164;5.518;2023-04-16T03:43:18;6.18;;;1.92;;
21539;SDS011;10931;52.164;5.518;2023-04-16T03:45:44;4.93;;;1.88;;
21539;SDS011;10931;52.164;5.518;2023-04-16T03:48:11;6.25;;;1.85;;
21539;SDS011;10931;52.164;5.518;2023-04-16T03:50:37;3.70;;;1.63;;
21539;SDS011;10931;52.164;5.518;2023-04-16T03:53:02;4.75;;;1.55;;
21539;SDS011;10931;52.164;5.518;2023-04-16T03:55:28;5.72;;;2.03;;
21539;SDS011;10931;52.164;5.518;2023-04-16T03:57:56;4.47;;;2.03;;
21539;SDS011;10931;52.164;5.518;2023-04-16T04:00:22;4.05;;;2.17;;
21539;SDS011;10931;52.164;5.518;2023-04-16T04:02:47;4.72;;;1.90;;
21539;SDS011;10931;52.164;5.518;2023-04-16T04:05:13;6.75;;;1.92;;
21539;SDS011;10931;52.164;5.518;2023-04-16T04:07:39;3.63;;;1.42;;
21539;SDS011;10931;52.164;5.518;2023-04-16T04:10:04;5.65;;;2.03;;
21539;SDS011;10931;52.164;5.518;2023-04-16T04:12:30;5.55;;;2.15;;
21539;SDS011;10931;52.164;5.518;2023-04-16T04:14:56;5.32;;;1.73;;
21539;SDS011;10931;52.164;5.518;2023-04-16T04:17:22;5.60;;;1.75;;
21539;SDS011;10931;52.164;5.518;2023-04-16T04:19:47;5.15;;;1.92;;
21539;SDS011;10931;52.164;5.518;2023-04-16T04:22:13;4.53;;;1.70;;
21539;SDS011;10931;52.164;5.518;2023-04-16T04:24:39;4.97;;;1.80;;
21539;SDS011;10931;52.164;5.518;2023-04-16T04:27:05;3.70;;;1.80;;
21539;SDS011;10931;52.164;5.518;2023-04-16T04:29:30;4.30;;;1.90;;
21539;SDS011;10931;52.164;5.518;2023-04-16T04:31:56;4.35;;;1.50;;
21539;SDS011;10931;52.164;5.518;2023-04-16T04:34:22;6.60;;;1.80;;
21539;SDS011;10931;52.164;5.518;2023-04-16T04:36:48;4.65;;;1.58;;
21539;SDS011;10931;52.164;5.518;2023-04-16T04:39:14;4.20;;;2.00;;
21539;SDS011;10931;52.164;5.518;2023-04-16T04:41:40;4.18;;;1.77;;
21539;SDS011;10931;52.164;5.518;2023-04-16T04:44:06;2.78;;;1.42;;
21539;SDS011;10931;52.164;5.518;2023-04-16T04:46:31;3.92;;;1.70;;
21539;SDS011;10931;52.164;5.518;2023-04-16T04:48:57;5.20;;;1.88;;
21539;SDS011;10931;52.164;5.518;2023-04-16T04:51:23;4.38;;;1.67;;
21539;SDS011;10931;52.164;5.518;2023-04-16T04:53:48;6.35;;;2.00;;
21539;SDS011;10931;52.164;5.518;2023-04-16T04:56:14;3.58;;;1.92;;
21539;SDS011;10931;52.164;5.518;2023-04-16T04:58:40;5.82;;;2.03;;
21539;SDS011;10931;52.164;5.518;2023-04-16T05:01:06;4.38;;;2.20;;
21539;SDS011;10931;52.164;5.518;2023-04-16T05:03:31;5.90;;;2.03;;
21539;SDS011;10931;52.164;5.518;2023-04-16T05:05:57;5.10;;;2.15;;
21539;SDS011;10931;52.164;5.518;2023-04-16T05:08:22;4.05;;;2.05;;
21539;SDS011;10931;52.164;5.518;2023-04-16T05:10:48;3.45;;;1.98;;
21539;SDS011;10931;52.164;5.518;2023-04-16T05:13:14;5.63;;;2.20;;
21539;SDS011;10931;52.164;5.518;2023-04-16T05:15:40;3.17;;;1.70;;
21539;SDS011;10931;52.164;5.518;2023-04-16T05:18:06;4.45;;;2.13;;
21539;SDS011;10931;52.164;5.518;2023-04-16T05:20:31;3.40;;;1.50;;
21539;SDS011;10931;52.164;5.518;2023-04-16T05:22:57;4.35;;;1.65;;
21539;SDS011;10931;52.164;5.518;2023-04-16T05:25:22;4.82;;;2.00;;
21539;SDS011;10931;52.164;5.518;2023-04-16T05:27:48;4.53;;;1.55;;
21539;SDS011;10931;52.164;5.518;2023-04-16T05:30:14;4.97;;;1.98;;
21539;SDS011;10931;52.164;5.518;2023-04-16T05:32:39;4.07;;;1.92;;
21539;SDS011;10931;52.164;5.518;2023-04-16T05:35:05;5.65;;;2.15;;
21539;SDS011;10931;52.164;5.518;2023-04-16T05:37:31;5.10;;;1.98;;
21539;SDS011;10931;52.164;5.518;2023-04-16T05:39:57;4.50;;;1.88;;
21539;SDS011;10931;52.164;5.518;2023-04-16T05:42:22;3.35;;;1.80;;
21539;SDS011;10931;52.164;5.518;2023-04-16T05:44:49;5.50;;;2.17;;
21539;SDS011;10931;52.164;5.518;2023-04-16T05:47:15;5.72;;;1.80;;
21539;SDS011;10931;52.164;5.518;2023-04-16T05:49:41;2.88;;;1.77;;
21539;SDS011;10931;52.164;5.518;2023-04-16T05:52:06;7.93;;;1.90;;
21539;SDS011;10931;52.164;5.518;2023-04-16T05:54:32;3.33;;;1.70;;
21539;SDS011;10931;52.164;5.518;2023-04-16T05:56:58;3.35;;;1.77;;
21539;SDS011;10931;52.164;5.518;2023-04-16T05:59:25;5.57;;;2.00;;
21539;SDS011;10931;52.164;5.518;2023-04-16T06:01:51;3.67;;;2.20;;
21539;SDS011;10931;52.164;5.518;2023-04-16T06:04:16;3.45;;;1.90;;
21539;SDS011;10931;52.164;5.518;2023-04-16T06:06:42;5.55;;;1.75;;
21539;SDS011;10931;52.164;5.518;2023-04-16T06:09:08;4.57;;;1.77;;
21539;SDS011;10931;52.164;5.518;2023-04-16T06:11:34;3.28;;;1.83;;
21539;SDS011;10931;52.164;5.518;2023-04-16T06:14:00;4.28;;;1.75;;
21539;SDS011;10931;52.164;5.518;2023-04-16T06:16:25;4.78;;;1.67;;
21539;SDS011;10931;52.164;5.518;2023-04-16T06:18:51;4.20;;;1.65;;
21539;SDS011;10931;52.164;5.518;2023-04-16T06:21:17;4.68;;;2.20;;
21539;SDS011;10931;52.164;5.518;2023-04-16T06:23:42;5.03;;;2.03;;
21539;SDS011;10931;52.164;5.518;2023-04-16T06:26:08;3.90;;;1.50;;
21539;SDS011;10931;52.164;5.518;2023-04-16T06:28:34;4.90;;;1.95;;
21539;SDS011;10931;52.164;5.518;2023-04-16T06:31:00;4.60;;;1.95;;
21539;SDS011;10931;52.164;5.518;2023-04-16T06:33:26;3.53;;;1.77;;
21539;SDS011;10931;52.164;5.518;2023-04-16T06:35:52;4.05;;;2.05;;
21539;SDS011;10931;52.164;5.518;2023-04-16T06:38:18;3.85;;;1.85;;
21539;SDS011;10931;52.164;5.518;2023-04-16T06:40:44;3.63;;;1.90;;
21539;SDS011;10931;52.164;5.518;2023-04-16T06:43:10;2.85;;;1.65;;
21539;SDS011;10931;52.164;5.518;2023-04-16T06:45:36;4.40;;;2.25;;
21539;SDS011;10931;52.164;5.518;2023-04-16T06:48:03;4.57;;;2.40;;
21539;SDS011;10931;52.164;5.518;2023-04-16T06:50:29;3.08;;;1.58;;
21539;SDS011;10931;52.164;5.518;2023-04-16T06:52:55;3.47;;;2.17;;
21539;SDS011;10931;52.164;5.518;2023-04-16T06:55:20;3.13;;;1.75;;
21539;SDS011;10931;52.164;5.518;2023-04-16T06:57:46;4.15;;;1.75;;
21539;SDS011;10931;52.164;5.518;2023-04-16T07:00:12;4.80;;;1.80;;
21539;SDS011;10931;52.164;5.518;2023-04-16T07:02:38;4.95;;;1.98;;
21539;SDS011;10931;52.164;5.518;2023-04-16T07:05:03;5.70;;;1.90;;
21539;SDS011;10931;52.164;5.518;2023-04-16T07:07:29;5.00;;;1.83;;
21539;SDS011;10931;52.164;5.518;2023-04-16T07:09:58;3.47;;;2.15;;
21539;SDS011;10931;52.164;5.518;2023-04-16T07:12:23;4.20;;;2.05;;
21539;SDS011;10931;52.164;5.518;2023-04-16T07:14:49;4.15;;;1.80;;
21539;SDS011;10931;52.164;5.518;2023-04-16T07:17:15;4.63;;;2.20;;
21539;SDS011;10931;52.164;5.518;2023-04-16T07:19:40;4.20;;;1.98;;
21539;SDS011;10931;52.164;5.518;2023-04-16T07:22:06;6.40;;;2.25;;
21539;SDS011;10931;52.164;5.518;2023-04-16T07:24:36;3.85;;;2.13;;
21539;SDS011;10931;52.164;5.518;2023-04-16T07:27:03;6.90;;;2.83;;
21539;SDS011;10931;52.164;5.518;2023-04-16T07:29:31;5.10;;;2.45;;
21539;SDS011;10931;52.164;5.518;2023-04-16T07:31:57;3.53;;;1.80;;
21539;SDS011;10931;52.164;5.518;2023-04-16T07:36:51;4.55;;;2.20;;
21539;SDS011;10931;52.164;5.518;2023-04-16T07:39:24;4.32;;;2.05;;
21539;SDS011;10931;52.164;5.518;2023-04-16T07:41:52;4.03;;;2.10;;
21539;SDS011;10931;52.164;5.518;2023-04-16T07:44:18;4.13;;;2.15;;
21539;SDS011;10931;52.164;5.518;2023-04-16T07:46:44;3.83;;;2.20;;
21539;SDS011;10931;52.164;5.518;2023-04-16T07:49:09;5.28;;;1.90;;
21539;SDS011;10931;52.164;5.518;2023-04-16T07:51:35;3.92;;;1.95;;
21539;SDS011;10931;52.164;5.518;2023-04-16T07:54:03;3.33;;;1.85;;
21539;SDS011;10931;52.164;5.518;2023-04-16T07:56:29;5.40;;;2.20;;
21539;SDS011;10931;52.164;5.518;2023-04-16T07:58:55;6.03;;;2.33;;
21539;SDS011;10931;52.164;5.518;2023-04-16T08:01:20;5.20;;;2.53;;
21539;SDS011;10931;52.164;5.518;2023-04-16T08:03:46;5.25;;;2.17;;
21539;SDS011;10931;52.164;5.518;2023-04-16T08:06:12;4.65;;;2.03;;
21539;SDS011;10931;52.164;5.518;2023-04-16T08:08:45;7.00;;;2.72;;
21539;SDS011;10931;52.164;5.518;2023-04-16T08:11:12;4.22;;;1.95;;
21539;SDS011;10931;52.164;5.518;2023-04-16T08:13:41;3.70;;;2.22;;
21539;SDS011;10931;52.164;5.518;2023-04-16T08:16:13;3.92;;;2.03;;
21539;SDS011;10931;52.164;5.518;2023-04-16T08:18:38;5.38;;;2.42;;
21539;SDS011;10931;52.164;5.518;2023-04-16T08:21:04;4.18;;;2.38;;
21539;SDS011;10931;52.164;5.518;2023-04-16T08:23:30;4.57;;;2.10;;
21539;SDS011;10931;52.164;5.518;2023-04-16T08:25:56;5.25;;;2.33;;
21539;SDS011;10931;52.164;5.518;2023-04-16T08:28:22;4.10;;;2.10;;
21539;SDS011;10931;52.164;5.518;2023-04-16T08:30:50;3.88;;;1.75;;
21539;SDS011;10931;52.164;5.518;2023-04-16T08:33:18;5.72;;;2.13;;
21539;SDS011;10931;52.164;5.518;2023-04-16T08:35:44;6.55;;;2.88;;
21539;SDS011;10931;52.164;5.518;2023-04-16T08:38:13;5.47;;;2.35;;
21539;SDS011;10931;52.164;5.518;2023-04-16T08:40:47;3.72;;;1.98;;
21539;SDS011;10931;52.164;5.518;2023-04-16T08:43:13;4.70;;;1.95;;
21539;SDS011;10931;52.164;5.518;2023-04-16T08:45:42;4.53;;;1.98;;
21539;SDS011;10931;52.164;5.518;2023-04-16T08:48:11;3.17;;;2.10;;
21539;SDS011;10931;52.164;5.518;2023-04-16T08:50:38;5.28;;;2.28;;
21539;SDS011;10931;52.164;5.518;2023-04-16T08:53:05;4.53;;;2.17;;
21539;SDS011;10931;52.164;5.518;2023-04-16T08:55:36;4.22;;;2.20;;
21539;SDS011;10931;52.164;5.518;2023-04-16T08:58:14;3.85;;;2.17;;
21539;SDS011;10931;52.164;5.518;2023-04-16T09:00:44;4.93;;;2.00;;
21539;SDS011;10931;52.164;5.518;2023-04-16T09:03:11;3.15;;;1.80;;
21539;SDS011;10931;52.164;5.518;2023-04-16T09:05:39;3.92;;;1.90;;
21539;SDS011;10931;52.164;5.518;2023-04-16T09:08:08;4.50;;;2.13;;
21539;SDS011;10931;52.164;5.518;2023-04-16T09:10:37;5.63;;;2.42;;
21539;SDS011;10931;52.164;5.518;2023-04-16T09:13:03;3.30;;;2.10;;
21539;SDS011;10931;52.164;5.518;2023-04-16T09:15:39;5.68;;;2.20;;
21539;SDS011;10931;52.164;5.518;2023-04-16T09:18:06;4.15;;;2.10;;
21539;SDS011;10931;52.164;5.518;2023-04-16T09:20:33;3.33;;;1.63;;
21539;SDS011;10931;52.164;5.518;2023-04-16T09:22:58;4.80;;;1.80;;
21539;SDS011;10931;52.164;5.518;2023-04-16T09:25:25;4.78;;;1.88;;
21539;SDS011;10931;52.164;5.518;2023-04-16T09:27:51;4.25;;;1.70;;
21539;SDS011;10931;52.164;5.518;2023-04-16T09:30:20;3.05;;;1.60;;
21539;SDS011;10931;52.164;5.518;2023-04-16T09:32:49;4.05;;;1.63;;
21539;SDS011;10931;52.164;5.518;2023-04-16T09:35:19;5.32;;;2.10;;
21539;SDS011;10931;52.164;5.518;2023-04-16T09:38:04;3.85;;;1.80;;
21539;SDS011;10931;52.164;5.518;2023-04-16T09:40:30;4.07;;;1.70;;
21539;SDS011;10931;52.164;5.518;2023-04-16T09:43:08;3.30;;;1.80;;
21539;SDS011;10931;52.164;5.518;2023-04-16T09:45:49;2.28;;;1.63;;
21539;SDS011;10931;52.164;5.518;2023-04-16T09:48:34;2.40;;;1.70;;
21539;SDS011;10931;52.164;5.518;2023-04-16T09:51:00;4.35;;;1.95;;
21539;SDS011;10931;52.164;5.518;2023-04-16T09:53:31;2.88;;;1.58;;
21539;SDS011;10931;52.164;5.518;2023-04-16T09:55:57;3.90;;;2.15;;
21539;SDS011;10931;52.164;5.518;2023-04-16T09:58:25;3.40;;;1.80;;
21539;SDS011;10931;52.164;5.518;2023-04-16T10:00:55;4.05;;;1.85;;
21539;SDS011;10931;52.164;5.518;2023-04-16T10:03:28;2.95;;;1.88;;
21539;SDS011;10931;52.164;5.518;2023-04-16T10:05:58;5.00;;;1.92;;
21539;SDS011;10931;52.164;5.518;2023-04-16T10:08:51;4.18;;;2.08;;
21539;SDS011;10931;52.164;5.518;2023-04-16T10:11:22;4.53;;;1.65;;
21539;SDS011;10931;52.164;5.518;2023-04-16T10:13:51;3.00;;;1.70;;
21539;SDS011;10931;52.164;5.518;2023-04-16T10:16:16;3.20;;;1.75;;
21539;SDS011;10931;52.164;5.518;2023-04-16T10:18:45;2.22;;;1.33;;
21539;SDS011;10931;52.164;5.518;2023-04-16T10:21:11;3.95;;;1.67;;
21539;SDS011;10931;52.164;5.518;2023-04-16T10:23:39;3.60;;;1.70;;
21539;SDS011;10931;52.164;5.518;2023-04-16T10:26:05;3.10;;;1.65;;
21539;SDS011;10931;52.164;5.518;2023-04-16T10:28:31;3.78;;;1.88;;
21539;SDS011;10931;52.164;5.518;2023-04-16T10:30:59;2.92;;;1.70;;
21539;SDS011;10931;52.164;5.518;2023-04-16T10:33:28;3.15;;;2.08;;
21539;SDS011;10931;52.164;5.518;2023-04-16T10:36:14;3.05;;;1.73;;
21539;SDS011;10931;52.164;5.518;2023-04-16T10:38:59;3.78;;;1.98;;
21539;SDS011;10931;52.164;5.518;2023-04-16T10:41:27;6.10;;;2.15;;
21539;SDS011;10931;52.164;5.518;2023-04-16T10:44:21;4.00;;;2.10;;
21539;SDS011;10931;52.164;5.518;2023-04-16T10:46:49;3.33;;;2.03;;
21539;SDS011;10931;52.164;5.518;2023-04-16T10:49:16;3.47;;;1.80;;
21539;SDS011;10931;52.164;5.518;2023-04-16T10:54:25;4.03;;;2.08;;
21539;SDS011;10931;52.164;5.518;2023-04-16T10:56:56;3.85;;;1.70;;
21539;SDS011;10931;52.164;5.518;2023-04-16T10:59:23;3.75;;;1.90;;
21539;SDS011;10931;52.164;5.518;2023-04-16T11:02:03;3.30;;;1.90;;
21539;SDS011;10931;52.164;5.518;2023-04-16T11:04:33;3.38;;;1.90;;
21539;SDS011;10931;52.164;5.518;2023-04-16T11:09:43;4.03;;;2.10;;
21539;SDS011;10931;52.164;5.518;2023-04-16T11:12:16;6.18;;;2.25;;
21539;SDS011;10931;52.164;5.518;2023-04-16T11:14:53;3.67;;;2.10;;
21539;SDS011;10931;52.164;5.518;2023-04-16T11:17:48;3.22;;;2.00;;
21539;SDS011;10931;52.164;5.518;2023-04-16T11:20:24;4.05;;;2.05;;
21539;SDS011;10931;52.164;5.518;2023-04-16T11:22:53;4.57;;;1.95;;
21539;SDS011;10931;52.164;5.518;2023-04-16T11:25:34;3.67;;;1.85;;
21539;SDS011;10931;52.164;5.518;2023-04-16T11:28:12;5.15;;;2.40;;
21539;SDS011;10931;52.164;5.518;2023-04-16T11:30:47;4.45;;;2.50;;
21539;SDS011;10931;52.164;5.518;2023-04-16T11:33:13;2.92;;;1.70;;
21539;SDS011;10931;52.164;5.518;2023-04-16T11:35:41;3.58;;;1.80;;
21539;SDS011;10931;52.164;5.518;2023-04-16T11:38:08;4.43;;;1.90;;
21539;SDS011;10931;52.164;5.518;2023-04-16T11:40:34;3.85;;;1.77;;
21539;SDS011;10931;52.164;5.518;2023-04-16T11:43:25;3.72;;;2.03;;
21539;SDS011;10931;52.164;5.518;2023-04-16T11:46:08;3.28;;;2.08;;
21539;SDS011;10931;52.164;5.518;2023-04-16T11:48:49;3.25;;;2.15;;
21539;SDS011;10931;52.164;5.518;2023-04-16T11:51:19;4.32;;;2.22;;
21539;SDS011;10931;52.164;5.518;2023-04-16T11:56:29;6.28;;;2.20;;
21539;SDS011;10931;52.164;5.518;2023-04-16T11:59:13;5.25;;;2.58;;
21539;SDS011;10931;52.164;5.518;2023-04-16T12:01:49;7.60;;;2.45;;
21539;SDS011;10931;52.164;5.518;2023-04-16T12:04:22;5.80;;;2.80;;
21539;SDS011;10931;52.164;5.518;2023-04-16T12:07:07;4.10;;;2.65;;
21539;SDS011;10931;52.164;5.518;2023-04-16T12:09:35;4.45;;;2.47;;
21539;SDS011;10931;52.164;5.518;2023-04-16T12:12:03;4.15;;;2.30;;
21539;SDS011;10931;52.164;5.518;2023-04-16T12:14:29;4.40;;;2.35;;
21539;SDS011;10931;52.164;5.518;2023-04-16T12:17:15;2.85;;;1.88;;
21539;SDS011;10931;52.164;5.518;2023-04-16T12:19:51;4.68;;;2.53;;
21539;SDS011;10931;52.164;5.518;2023-04-16T12:22:33;4.78;;;2.25;;
21539;SDS011;10931;52.164;5.518;2023-04-16T12:25:01;4.35;;;2.40;;
21539;SDS011;10931;52.164;5.518;2023-04-16T12:33:26;6.25;;;2.58;;
21539;SDS011;10931;52.164;5.518;2023-04-16T12:35:55;5.20;;;2.70;;
21539;SDS011;10931;52.164;5.518;2023-04-16T12:38:21;8.50;;;3.40;;
21539;SDS011;10931;52.164;5.518;2023-04-16T12:40:47;6.32;;;2.95;;
21539;SDS011;10931;52.164;5.518;2023-04-16T12:43:12;6.22;;;3.00;;
21539;SDS011;10931;52.164;5.518;2023-04-16T12:45:40;5.68;;;2.70;;
21539;SDS011;10931;52.164;5.518;2023-04-16T12:48:09;6.88;;;2.95;;
21539;SDS011;10931;52.164;5.518;2023-04-16T12:53:04;5.00;;;2.30;;
21539;SDS011;10931;52.164;5.518;2023-04-16T12:55:30;5.05;;;2.58;;
21539;SDS011;10931;52.164;5.518;2023-04-16T12:57:58;10.25;;;3.38;;
21539;SDS011;10931;52.164;5.518;2023-04-16T13:00:23;6.43;;;2.35;;
21539;SDS011;10931;52.164;5.518;2023-04-16T13:02:50;6.68;;;3.15;;
21539;SDS011;10931;52.164;5.518;2023-04-16T13:05:16;4.65;;;2.40;;
21539;SDS011;10931;52.164;5.518;2023-04-16T13:07:45;6.70;;;2.88;;
21539;SDS011;10931;52.164;5.518;2023-04-16T13:10:10;5.65;;;2.92;;
21539;SDS011;10931;52.164;5.518;2023-04-16T13:12:36;4.28;;;2.70;;
21539;SDS011;10931;52.164;5.518;2023-04-16T13:15:09;6.07;;;2.50;;
21539;SDS011;10931;52.164;5.518;2023-04-16T13:17:35;4.93;;;2.47;;
21539;SDS011;10931;52.164;5.518;2023-04-16T13:20:01;6.53;;;2.70;;
21539;SDS011;10931;52.164;5.518;2023-04-16T13:22:27;4.25;;;2.67;;
21539;SDS011;10931;52.164;5.518;2023-04-16T13:24:52;5.40;;;2.53;;
21539;SDS011;10931;52.164;5.518;2023-04-16T13:27:19;6.30;;;2.65;;
21539;SDS011;10931;52.164;5.518;2023-04-16T13:29:44;5.90;;;2.58;;
21539;SDS011;10931;52.164;5.518;2023-04-16T13:32:11;5.93;;;2.60;;
21539;SDS011;10931;52.164;5.518;2023-04-16T13:34:38;4.60;;;2.30;;
21539;SDS011;10931;52.164;5.518;2023-04-16T13:37:03;7.82;;;2.75;;
21539;SDS011;10931;52.164;5.518;2023-04-16T13:39:29;4.85;;;2.50;;
21539;SDS011;10931;52.164;5.518;2023-04-16T13:41:54;4.55;;;2.58;;
21539;SDS011;10931;52.164;5.518;2023-04-16T13:44:20;5.47;;;2.75;;
21539;SDS011;10931;52.164;5.518;2023-04-16T13:46:47;5.25;;;3.35;;
21539;SDS011;10931;52.164;5.518;2023-04-16T13:49:13;5.50;;;2.75;;
21539;SDS011;10931;52.164;5.518;2023-04-16T13:51:44;7.63;;;3.00;;
21539;SDS011;10931;52.164;5.518;2023-04-16T13:54:10;5.00;;;2.75;;
21539;SDS011;10931;52.164;5.518;2023-04-16T13:56:49;4.75;;;2.88;;
21539;SDS011;10931;52.164;5.518;2023-04-16T13:59:15;6.60;;;2.90;;
21539;SDS011;10931;52.164;5.518;2023-04-16T14:01:41;6.05;;;2.65;;
21539;SDS011;10931;52.164;5.518;2023-04-16T14:04:20;3.42;;;2.22;;
21539;SDS011;10931;52.164;5.518;2023-04-16T14:06:46;4.47;;;2.20;;
21539;SDS011;10931;52.164;5.518;2023-04-16T14:09:13;4.80;;;2.25;;
21539;SDS011;10931;52.164;5.518;2023-04-16T14:11:50;4.45;;;2.35;;
21539;SDS011;10931;52.164;5.518;2023-04-16T14:14:15;5.00;;;2.22;;
21539;SDS011;10931;52.164;5.518;2023-04-16T14:16:41;3.78;;;2.22;;
21539;SDS011;10931;52.164;5.518;2023-04-16T14:19:07;5.45;;;2.55;;
21539;SDS011;10931;52.164;5.518;2023-04-16T14:21:33;5.75;;;2.60;;
21539;SDS011;10931;52.164;5.518;2023-04-16T14:24:00;5.28;;;2.70;;
21539;SDS011;10931;52.164;5.518;2023-04-16T14:26:25;5.78;;;2.88;;
21539;SDS011;10931;52.164;5.518;2023-04-16T14:28:51;5.25;;;2.40;;
21539;SDS011;10931;52.164;5.518;2023-04-16T14:31:17;7.07;;;2.40;;
21539;SDS011;10931;52.164;5.518;2023-04-16T14:33:44;4.25;;;1.95;;
21539;SDS011;10931;52.164;5.518;2023-04-16T14:36:10;4.45;;;2.58;;
21539;SDS011;10931;52.164;5.518;2023-04-16T14:38:35;5.20;;;2.65;;
21539;SDS011;10931;52.164;5.518;2023-04-16T14:43:57;4.50;;;2.42;;
21539;SDS011;10931;52.164;5.518;2023-04-16T14:48:54;5.47;;;2.45;;
21539;SDS011;10931;52.164;5.518;2023-04-16T14:51:22;3.85;;;1.77;;
21539;SDS011;10931;52.164;5.518;2023-04-16T14:53:48;4.40;;;2.55;;
21539;SDS011;10931;52.164;5.518;2023-04-16T14:56:13;5.50;;;2.72;;
21539;SDS011;10931;52.164;5.518;2023-04-16T14:58:43;4.88;;;2.40;;
21539;SDS011;10931;52.164;5.518;2023-04-16T15:01:09;5.40;;;2.30;;
21539;SDS011;10931;52.164;5.518;2023-04-16T15:06:20;4.22;;;2.08;;
21539;SDS011;10931;52.164;5.518;2023-04-16T15:08:46;4.07;;;2.33;;
21539;SDS011;10931;52.164;5.518;2023-04-16T15:11:11;3.78;;;2.58;;
21539;SDS011;10931;52.164;5.518;2023-04-16T15:13:37;4.82;;;2.58;;
21539;SDS011;10931;52.164;5.518;2023-04-16T15:16:03;5.60;;;2.75;;
21539;SDS011;10931;52.164;5.518;2023-04-16T15:18:29;4.90;;;2.67;;
21539;SDS011;10931;52.164;5.518;2023-04-16T15:20:56;5.43;;;2.35;;
21539;SDS011;10931;52.164;5.518;2023-04-16T15:23:21;5.20;;;2.70;;
21539;SDS011;10931;52.164;5.518;2023-04-16T15:25:47;5.80;;;2.63;;